Time;durP1;ratioP1;P1;durP2;ratioP2;P2;SDS_P1;SDS_P2;PMS_P1;PMS_P2;Temp;Humidity;BMP_temperature;BMP_pressure;BME280_temperature;BME280_humidity;BME280_pressure;Samples;Min_cycle;Max_cycle;Signal;HPM_P1;HPM_P2
2021/04/07 00:00:01;;;;;;;10.35;2.65;;;2.00;97.30;;;;;;4971749;28;20053;-71
2021/04/07 00:02:26;;;;;;;5.20;1.92;;;2.00;97.20;;;;;;4971675;28;20031;-71
2021/04/07 00:05:07;;;;;;;6.30;2.38;;;2.00;97.30;;;;;;5038894;28;20023;-71
2021/04/07 00:07:32;;;;;;;6.18;2.55;;;2.00;97.60;;;;;;5038519;28;20054;-71
2021/04/07 00:09:59;;;;;;;7.63;2.58;;;2.00;97.20;;;;;;4972032;28;20030;-71
2021/04/07 00:12:25;;;;;;;5.65;2.15;;;2.10;96.90;;;;;;4971055;28;20019;-71
2021/04/07 00:14:50;;;;;;;6.75;2.17;;;2.20;96.30;;;;;;5038305;28;20113;-71
2021/04/07 00:17:16;;;;;;;6.43;2.22;;;2.20;96.30;;;;;;4971023;28;20027;-71
2021/04/07 00:19:41;;;;;;;6.90;2.03;;;2.20;96.50;;;;;;4971245;28;20099;-71
2021/04/07 00:22:07;;;;;;;6.70;2.25;;;2.30;95.80;;;;;;4971017;28;20023;-70
2021/04/07 00:24:32;;;;;;;7.57;2.88;;;2.20;96.00;;;;;;4971257;28;20034;-71
2021/04/07 00:26:58;;;;;;;8.40;2.42;;;2.20;95.90;;;;;;4971014;28;20512;-70
2021/04/07 00:29:24;;;;;;;4.82;1.90;;;2.10;96.00;;;;;;4971169;28;20478;-70
2021/04/07 00:31:50;;;;;;;5.93;2.20;;;2.10;96.10;;;;;;5037618;28;20030;-70
2021/04/07 00:34:15;;;;;;;6.65;2.17;;;2.00;96.30;;;;;;4971078;28;20490;-71
2021/04/07 00:36:41;;;;;;;8.25;2.35;;;2.00;96.50;;;;;;4970844;28;20041;-70
2021/04/07 00:39:06;;;;;;;5.82;2.47;;;1.90;96.50;;;;;;5037624;28;20027;-70
2021/04/07 00:41:32;;;;;;;7.45;2.75;;;1.90;96.60;;;;;;4970624;28;20054;-70
2021/04/07 00:44:03;;;;;;;5.38;2.50;;;1.80;96.70;;;;;;5037382;28;20030;-71
2021/04/07 00:46:34;;;;;;;7.00;2.40;;;1.90;96.90;;;;;;5037679;28;20519;-70
2021/04/07 00:48:59;;;;;;;4.78;2.13;;;1.90;96.80;;;;;;4970872;28;20062;-70
2021/04/07 00:51:25;;;;;;;7.28;2.35;;;1.90;97.00;;;;;;4970620;28;20050;-70
2021/04/07 00:53:50;;;;;;;5.93;2.17;;;1.90;96.80;;;;;;5037384;28;20027;-70
2021/04/07 00:56:16;;;;;;;8.82;2.50;;;1.90;96.90;;;;;;5037349;28;20023;-70
2021/04/07 00:58:42;;;;;;;7.25;2.17;;;1.90;97.00;;;;;;4970521;28;20027;-70
2021/04/07 01:01:08;;;;;;;6.80;2.65;;;2.00;96.80;;;;;;4970860;28;20432;-70
2021/04/07 01:03:33;;;;;;;7.50;2.53;;;2.00;96.70;;;;;;4970363;28;20031;-70
2021/04/07 01:05:59;;;;;;;7.55;2.78;;;2.00;96.60;;;;;;4970698;28;20545;-70
2021/04/07 01:08:24;;;;;;;8.18;2.97;;;1.90;96.80;;;;;;4970536;28;20030;-71
2021/04/07 01:10:51;;;;;;;6.28;2.25;;;2.00;97.40;;;;;;4970725;28;20031;-70
2021/04/07 01:13:17;;;;;;;6.40;2.22;;;2.00;96.70;;;;;;5037019;28;20389;-71
2021/04/07 01:15:42;;;;;;;10.15;2.15;;;2.00;97.40;;;;;;4970457;28;20033;-70
2021/04/07 01:18:08;;;;;;;4.72;1.90;;;2.00;97.10;;;;;;5036970;28;20027;-71
2021/04/07 01:20:33;;;;;;;8.25;2.80;;;2.00;96.80;;;;;;4970373;28;20023;-71
2021/04/07 01:23:01;;;;;;;6.72;2.40;;;2.10;96.80;;;;;;4970156;28;20065;-71
2021/04/07 01:25:28;;;;;;;8.90;2.35;;;2.20;96.00;;;;;;5036831;28;20117;-70
2021/04/07 01:27:54;;;;;;;5.80;2.22;;;2.30;95.70;;;;;;4970557;28;20030;-70
2021/04/07 01:30:21;;;;;;;7.55;2.80;;;2.20;95.90;;;;;;4970153;28;20035;-70
2021/04/07 01:32:47;;;;;;;11.25;2.90;;;2.10;96.20;;;;;;5036563;28;20035;-71
2021/04/07 01:35:17;;;;;;;8.85;2.22;;;2.10;96.50;;;;;;5036829;28;20034;-70
2021/04/07 01:37:43;;;;;;;6.60;2.35;;;2.20;96.20;;;;;;4970056;28;20371;-70
2021/04/07 01:40:12;;;;;;;6.15;2.25;;;2.10;96.50;;;;;;4970009;28;20027;-71
2021/04/07 01:42:40;;;;;;;6.07;2.45;;;2.00;96.70;;;;;;4969807;28;20023;-71
2021/04/07 01:45:06;;;;;;;6.18;2.30;;;2.10;96.60;;;;;;5036825;28;20023;-71
2021/04/07 01:47:33;;;;;;;8.10;2.38;;;2.10;96.40;;;;;;4969829;28;20033;-71
2021/04/07 01:50:00;;;;;;;6.15;2.35;;;2.10;96.10;;;;;;5036513;28;20409;-70
2021/04/07 01:52:28;;;;;;;6.35;2.20;;;2.00;96.60;;;;;;5036104;28;20401;-71
2021/04/07 01:54:54;;;;;;;6.72;2.38;;;2.10;96.20;;;;;;5035650;28;20050;-70
2021/04/07 01:57:20;;;;;;;9.50;2.35;;;2.00;96.30;;;;;;4969810;28;20039;-70
2021/04/07 01:59:45;;;;;;;9.02;2.63;;;1.90;96.60;;;;;;4969989;28;20493;-70
2021/04/07 02:02:11;;;;;;;8.13;2.70;;;1.90;96.70;;;;;;4969732;28;20030;-71
2021/04/07 02:04:36;;;;;;;9.35;2.95;;;1.90;96.90;;;;;;4970325;28;20031;-71
2021/04/07 02:07:09;;;;;;;7.22;2.50;;;1.90;97.10;;;;;;4969820;28;20055;-71
2021/04/07 02:09:35;;;;;;;5.88;2.13;;;1.90;97.60;;;;;;5036402;28;20023;-71
2021/04/07 02:12:00;;;;;;;7.93;1.95;;;1.90;97.10;;;;;;4969417;28;20363;-71
2021/04/07 02:14:26;;;;;;;9.68;2.85;;;1.90;97.00;;;;;;4961111;28;20074;-70
2021/04/07 02:16:56;;;;;;;10.25;3.42;;;1.90;97.00;;;;;;5024329;28;20508;-71
2021/04/07 02:19:23;;;;;;;11.02;4.38;;;1.80;97.60;;;;;;4958411;28;20043;-70
2021/04/07 02:22:10;;;;;;;6.63;2.47;;;1.80;97.70;;;;;;4959544;28;20097;-71
2021/04/07 02:24:37;;;;;;;5.88;2.10;;;1.80;97.60;;;;;;4960479;28;20023;-71
2021/04/07 02:27:10;;;;;;;7.32;2.22;;;1.90;97.40;;;;;;4960227;28;20030;-70
2021/04/07 02:29:36;;;;;;;9.10;3.00;;;1.90;97.40;;;;;;4960001;28;20034;-71
2021/04/07 02:32:02;;;;;;;7.47;2.30;;;1.90;97.80;;;;;;4958088;28;20482;-71
2021/04/07 02:34:27;;;;;;;6.45;2.45;;;1.80;98.20;;;;;;4959877;28;20084;-71
2021/04/07 02:36:53;;;;;;;7.47;2.65;;;1.90;98.20;;;;;;5025555;28;20015;-70
2021/04/07 02:39:18;;;;;;;11.60;2.67;;;1.90;98.00;;;;;;4958408;28;20077;-70
2021/04/07 02:41:44;;;;;;;8.13;2.67;;;2.00;97.60;;;;;;4959774;28;20054;-71
2021/04/07 02:44:09;;;;;;;9.45;2.60;;;2.00;98.10;;;;;;5025190;28;20023;-70
2021/04/07 02:46:35;;;;;;;7.35;2.72;;;1.90;98.10;;;;;;4958572;28;20470;-70
2021/04/07 02:49:00;;;;;;;7.75;2.40;;;1.90;98.10;;;;;;5023751;28;20035;-71
2021/04/07 02:51:26;;;;;;;7.15;2.60;;;1.90;98.00;;;;;;5042239;28;20484;-70
2021/04/07 02:53:51;;;;;;;8.00;2.47;;;1.90;97.90;;;;;;4956185;28;20534;-71
2021/04/07 02:56:17;;;;;;;7.53;2.60;;;2.00;98.10;;;;;;4954720;28;20024;-70
2021/04/07 02:58:42;;;;;;;9.43;2.75;;;1.90;98.20;;;;;;5015028;28;20389;-70
2021/04/07 03:01:08;;;;;;;8.63;2.80;;;2.00;98.10;;;;;;5015741;28;20317;-69
2021/04/07 03:03:33;;;;;;;7.45;2.80;;;2.00;97.80;;;;;;4949441;29;20054;-71
2021/04/07 03:05:59;;;;;;;8.55;2.45;;;1.90;98.60;;;;;;4951200;29;20420;-71
2021/04/07 03:08:24;;;;;;;7.45;2.72;;;1.90;98.60;;;;;;5019426;28;20027;-71
2021/04/07 03:10:50;;;;;;;9.07;4.35;;;2.00;98.10;;;;;;4953032;29;20446;-71
2021/04/07 03:13:17;;;;;;;6.22;2.97;;;2.00;98.20;;;;;;4952614;29;20102;-70
2021/04/07 03:15:43;;;;;;;7.90;2.72;;;2.00;98.90;;;;;;4952831;29;20115;-71
2021/04/07 03:18:08;;;;;;;7.43;3.22;;;2.00;98.60;;;;;;4952828;29;20457;-70
2021/04/07 03:20:34;;;;;;;16.88;2.83;;;2.00;98.40;;;;;;4952870;28;20085;-71
2021/04/07 03:22:59;;;;;;;7.47;3.10;;;2.00;98.60;;;;;;4952558;29;20032;-70
2021/04/07 03:25:25;;;;;;;11.77;3.17;;;2.00;98.50;;;;;;4952845;28;20432;-70
2021/04/07 03:27:50;;;;;;;9.27;3.10;;;2.00;99.10;;;;;;4952634;28;20027;-71
2021/04/07 03:30:17;;;;;;;13.30;3.25;;;1.90;99.50;;;;;;5019922;28;20069;-71
2021/04/07 03:32:43;;;;;;;12.88;3.85;;;1.90;99.80;;;;;;5018849;28;20031;-70
2021/04/07 03:35:09;;;;;;;10.73;3.63;;;1.80;99.80;;;;;;4952756;28;20109;-71
2021/04/07 03:37:34;;;;;;;8.63;3.58;;;1.70;99.90;;;;;;4952391;28;20085;-71
2021/04/07 03:40:00;;;;;;;8.82;3.35;;;1.70;99.90;;;;;;4952613;28;20039;-71
2021/04/07 03:42:25;;;;;;;8.43;4.05;;;1.60;99.90;;;;;;4952220;29;20073;-71
2021/04/07 03:44:51;;;;;;;10.48;3.78;;;1.60;99.90;;;;;;4952581;29;20092;-71
2021/04/07 03:47:16;;;;;;;7.90;3.05;;;1.50;99.90;;;;;;4952698;29;20031;-71
2021/04/07 03:49:42;;;;;;;8.15;3.22;;;1.60;99.90;;;;;;4952567;29;20031;-70
2021/04/07 03:52:08;;;;;;;14.13;3.75;;;1.50;99.90;;;;;;5018452;28;20035;-70
2021/04/07 03:54:33;;;;;;;8.45;3.20;;;1.60;99.90;;;;;;4952414;29;20034;-71
2021/04/07 03:56:59;;;;;;;9.20;3.58;;;1.60;99.90;;;;;;4952097;29;20027;-71
2021/04/07 03:59:24;;;;;;;7.35;3.53;;;1.60;99.90;;;;;;5018773;28;20146;-71
2021/04/07 04:01:50;;;;;;;9.38;4.22;;;1.70;99.90;;;;;;4951991;29;20020;-70
2021/04/07 04:04:15;;;;;;;11.15;3.83;;;1.60;99.90;;;;;;4952258;28;20110;-71
2021/04/07 04:06:44;;;;;;;8.85;3.72;;;1.60;99.90;;;;;;4952162;28;20035;-71
2021/04/07 04:09:11;;;;;;;9.60;3.80;;;1.50;99.90;;;;;;5018998;28;20367;-71
2021/04/07 04:11:37;;;;;;;9.40;3.53;;;1.50;99.90;;;;;;4951859;28;20035;-70
2021/04/07 04:14:02;;;;;;;12.98;3.67;;;1.60;99.90;;;;;;4952233;29;20424;-70
2021/04/07 04:16:28;;;;;;;10.60;4.18;;;1.60;99.90;;;;;;4952059;29;20494;-71
2021/04/07 04:18:54;;;;;;;8.27;4.05;;;1.60;99.90;;;;;;4951380;28;20032;-71
2021/04/07 04:21:20;;;;;;;10.85;3.75;;;1.60;99.90;;;;;;4951980;29;20023;-71
2021/04/07 04:23:45;;;;;;;9.20;3.60;;;1.50;99.90;;;;;;4951994;29;20037;-70
2021/04/07 04:26:11;;;;;;;8.13;3.50;;;1.60;99.90;;;;;;5018487;28;20019;-70
2021/04/07 04:28:37;;;;;;;12.02;4.80;;;1.70;99.90;;;;;;4952062;29;20105;-71
2021/04/07 04:31:02;;;;;;;23.73;10.63;;;1.60;99.90;;;;;;4952183;29;20432;-71
2021/04/07 04:33:28;;;;;;;18.95;9.52;;;1.60;99.90;;;;;;4951881;28;20100;-71
2021/04/07 04:35:57;;;;;;;13.90;5.72;;;1.50;99.90;;;;;;5017842;28;20050;-71
2021/04/07 04:38:26;;;;;;;31.45;15.75;;;1.40;99.90;;;;;;4951680;29;20027;-71
2021/04/07 04:40:52;;;;;;;7.43;3.72;;;1.50;99.90;;;;;;4951669;28;20034;-71
2021/04/07 04:43:18;;;;;;;10.57;4.20;;;1.40;99.90;;;;;;4951416;29;20518;-70
2021/04/07 04:45:44;;;;;;;10.20;4.25;;;1.40;99.90;;;;;;5018140;28;20031;-71
2021/04/07 04:48:10;;;;;;;9.80;4.15;;;1.40;99.90;;;;;;4951554;29;20034;-71
2021/04/07 04:50:35;;;;;;;9.95;4.88;;;1.40;99.90;;;;;;4951493;29;20113;-70
2021/04/07 04:53:01;;;;;;;8.73;4.18;;;1.40;99.90;;;;;;4951300;28;20115;-71
2021/04/07 04:55:26;;;;;;;9.18;4.00;;;1.40;99.90;;;;;;4952352;28;20462;-70
2021/04/07 04:57:54;;;;;;;10.23;4.03;;;1.30;99.90;;;;;;4965295;28;20492;-71
2021/04/07 05:00:20;;;;;;;8.02;4.40;;;1.30;99.90;;;;;;4969730;28;20023;-71
2021/04/07 05:02:45;;;;;;;10.55;4.93;;;1.40;99.90;;;;;;4969637;28;20046;-71
2021/04/07 05:05:11;;;;;;;12.23;5.00;;;1.50;99.90;;;;;;4969807;28;20066;-71
2021/04/07 05:07:37;;;;;;;9.95;4.40;;;1.40;99.90;;;;;;4969320;28;20055;-71
2021/04/07 05:10:03;;;;;;;8.90;4.38;;;1.40;99.90;;;;;;4969583;28;20065;-71
2021/04/07 05:12:29;;;;;;;10.45;3.83;;;1.50;99.90;;;;;;4969059;28;20057;-70
2021/04/07 05:14:54;;;;;;;7.22;3.97;;;1.50;99.90;;;;;;4969496;28;20035;-71
2021/04/07 05:17:20;;;;;;;9.00;4.05;;;1.50;99.90;;;;;;4969472;28;20431;-71
2021/04/07 05:19:46;;;;;;;8.40;3.70;;;1.50;99.90;;;;;;4968966;28;20098;-71
2021/04/07 05:22:11;;;;;;;9.52;3.65;;;1.50;99.90;;;;;;4969331;28;20028;-71
2021/04/07 05:24:37;;;;;;;9.63;4.25;;;1.70;99.90;;;;;;4969423;28;20027;-71
2021/04/07 05:27:03;;;;;;;16.63;8.70;;;1.70;99.90;;;;;;4968865;28;20023;-71
2021/04/07 05:29:28;;;;;;;10.45;3.75;;;1.70;99.90;;;;;;5035322;28;20062;-71
2021/04/07 05:31:54;;;;;;;10.18;3.58;;;1.70;99.90;;;;;;5027936;28;20034;-72
2021/04/07 05:34:19;;;;;;;11.38;4.13;;;1.70;99.90;;;;;;4969479;28;20066;-72
2021/04/07 05:36:45;;;;;;;11.98;3.95;;;1.70;99.90;;;;;;5036010;28;20047;-71
2021/04/07 05:39:11;;;;;;;9.15;3.08;;;1.70;99.90;;;;;;4969082;28;20019;-72
2021/04/07 05:41:36;;;;;;;8.73;3.25;;;1.70;99.90;;;;;;4969459;28;20093;-72
2021/04/07 05:44:02;;;;;;;8.55;3.10;;;1.90;99.90;;;;;;5035974;28;20034;-73
2021/04/07 05:46:29;;;;;;;10.20;2.95;;;1.90;99.70;;;;;;4969246;28;20034;-72
2021/04/07 05:48:54;;;;;;;10.82;3.22;;;2.00;99.50;;;;;;5024286;28;20030;-72
2021/04/07 05:51:20;;;;;;;10.23;2.70;;;2.00;99.20;;;;;;4958148;28;20031;-72
2021/04/07 05:53:45;;;;;;;7.68;2.63;;;2.10;98.50;;;;;;4967765;28;20027;-71
2021/04/07 05:56:11;;;;;;;9.85;2.65;;;2.10;98.20;;;;;;5033536;28;20026;-72
2021/04/07 05:58:36;;;;;;;11.65;2.92;;;2.00;98.50;;;;;;4968530;28;20397;-72
2021/04/07 06:01:02;;;;;;;9.90;2.80;;;2.00;99.00;;;;;;4967804;28;20015;-72
2021/04/07 06:03:28;;;;;;;8.35;2.15;;;2.20;98.20;;;;;;4968225;28;20422;-72
2021/04/07 06:05:53;;;;;;;7.43;2.40;;;2.30;97.70;;;;;;4968415;28;20419;-71
2021/04/07 06:08:19;;;;;;;12.30;2.65;;;2.30;97.40;;;;;;4968171;28;20023;-72
2021/04/07 06:10:47;;;;;;;8.75;2.30;;;2.30;97.50;;;;;;4968925;28;20019;-72
2021/04/07 06:13:15;;;;;;;7.88;2.15;;;2.30;97.30;;;;;;5035081;28;20033;-72
2021/04/07 06:15:41;;;;;;;12.15;3.28;;;2.40;97.60;;;;;;5035037;28;20019;-72
2021/04/07 06:18:07;;;;;;;10.02;2.50;;;2.30;98.00;;;;;;4968519;28;20027;-72
2021/04/07 06:20:51;;;;;;;8.43;2.92;;;2.40;96.60;;;;;;4968574;28;20019;-72
2021/04/07 06:23:18;;;;;;;8.02;2.28;;;2.50;96.80;;;;;;4966636;28;20031;-72
2021/04/07 06:25:44;;;;;;;8.50;2.67;;;2.60;96.60;;;;;;5035429;28;20031;-72
2021/04/07 06:28:11;;;;;;;9.27;2.10;;;2.60;96.70;;;;;;4968451;28;20035;-72
2021/04/07 06:30:46;;;;;;;8.48;2.50;;;2.70;96.90;;;;;;5029743;28;20030;-72
2021/04/07 06:33:32;;;;;;;12.48;2.67;;;2.90;96.10;;;;;;4968123;28;20072;-72
2021/04/07 06:36:03;;;;;;;6.28;2.00;;;3.00;96.30;;;;;;4967201;28;20031;-71
2021/04/07 06:38:29;;;;;;;11.15;2.35;;;3.20;95.30;;;;;;4968620;28;20374;-72
2021/04/07 06:40:56;;;;;;;26.15;9.18;;;3.30;95.10;;;;;;4959793;28;20027;-72
2021/04/07 06:43:23;;;;;;;7.00;2.88;;;3.20;95.50;;;;;;5032418;28;20123;-72
2021/04/07 06:45:50;;;;;;;7.97;2.40;;;3.30;94.80;;;;;;4956018;29;20028;-72
2021/04/07 06:48:16;;;;;;;7.78;2.42;;;3.20;94.70;;;;;;4955971;28;20015;-71
2021/04/07 06:50:44;;;;;;;8.80;2.50;;;3.20;95.70;;;;;;4956560;28;20028;-72
2021/04/07 06:53:10;;;;;;;11.02;2.30;;;3.20;95.10;;;;;;4956292;29;20019;-71
2021/04/07 06:55:37;;;;;;;9.23;2.05;;;3.10;94.80;;;;;;4956624;29;20023;-72
2021/04/07 06:58:05;;;;;;;8.30;2.05;;;3.00;94.40;;;;;;4956456;28;20023;-72
2021/04/07 07:00:31;;;;;;;8.07;2.28;;;2.90;95.10;;;;;;4956528;28;20338;-72
2021/04/07 07:03:02;;;;;;;7.63;2.42;;;2.90;94.40;;;;;;4956109;29;20030;-72
2021/04/07 07:05:29;;;;;;;8.55;2.83;;;2.90;94.90;;;;;;4959725;28;20501;-71
2021/04/07 07:08:03;;;;;;;7.82;2.53;;;3.00;94.00;;;;;;4975458;28;20209;-72
2021/04/07 07:10:43;;;;;;;8.85;2.15;;;2.90;95.20;;;;;;4975326;28;20092;-71
2021/04/07 07:13:30;;;;;;;10.83;2.33;;;2.90;93.60;;;;;;4966634;28;20706;-71
2021/04/07 07:15:55;;;;;;;7.60;2.50;;;2.80;93.40;;;;;;4966853;28;20043;-71
2021/04/07 07:18:22;;;;;;;15.20;2.63;;;2.60;94.00;;;;;;4955792;29;20031;-71
2021/04/07 07:20:48;;;;;;;15.73;3.70;;;2.60;94.00;;;;;;4955774;29;20166;-71
2021/04/07 07:23:43;;;;;;;10.20;3.92;;;2.50;93.60;;;;;;5021832;28;20023;-71
2021/04/07 07:26:10;;;;;;;12.27;2.83;;;2.60;94.10;;;;;;5020722;28;20043;-71
2021/04/07 07:28:52;;;;;;;11.57;2.65;;;2.60;94.50;;;;;;4955747;29;20106;-71
2021/04/07 07:31:19;;;;;;;8.40;2.00;;;2.90;94.30;;;;;;4955622;28;20055;-71
2021/04/07 07:33:46;;;;;;;10.65;2.05;;;3.20;90.90;;;;;;4955901;28;20480;-72
2021/04/07 07:36:11;;;;;;;9.27;2.67;;;3.40;91.70;;;;;;4955884;28;20436;-71
2021/04/07 07:38:48;;;;;;;12.00;3.00;;;3.40;91.30;;;;;;4955542;28;20035;-72
2021/04/07 07:41:17;;;;;;;11.00;2.70;;;3.50;91.30;;;;;;4955547;29;20024;-70
2021/04/07 07:43:42;;;;;;;12.85;3.03;;;3.70;90.70;;;;;;4955659;29;20565;-70
2021/04/07 07:46:37;;;;;;;10.75;2.97;;;3.80;91.30;;;;;;4955386;28;20119;-71
2021/04/07 07:49:19;;;;;;;7.00;2.30;;;4.10;90.30;;;;;;4957640;28;20093;-72
2021/04/07 07:51:46;;;;;;;9.15;2.58;;;4.30;89.80;;;;;;5020483;28;20508;-72
2021/04/07 07:54:17;;;;;;;9.93;3.15;;;4.20;89.70;;;;;;5018467;28;20406;-71
2021/04/07 07:56:42;;;;;;;10.48;2.72;;;4.10;91.00;;;;;;4952116;28;20486;-72
2021/04/07 07:59:08;;;;;;;12.27;4.38;;;4.20;91.60;;;;;;4954876;28;20065;-72
2021/04/07 08:01:45;;;;;;;11.38;3.47;;;4.20;91.90;;;;;;5018201;28;20110;-72
2021/04/07 08:04:11;;;;;;;12.05;3.50;;;4.20;91.10;;;;;;4952225;29;20024;-72
2021/04/07 08:06:37;;;;;;;8.52;2.90;;;4.00;91.70;;;;;;4952108;29;20417;-72
2021/04/07 08:09:06;;;;;;;15.45;2.92;;;3.70;90.70;;;;;;5025575;28;20027;-71
2021/04/07 08:11:33;;;;;;;9.05;3.08;;;3.60;90.90;;;;;;4959910;28;20023;-72
2021/04/07 08:14:00;;;;;;;10.45;2.30;;;3.70;91.10;;;;;;4971253;28;20098;-72
2021/04/07 08:16:27;;;;;;;12.43;3.03;;;4.00;91.30;;;;;;4971093;28;20547;-72
2021/04/07 08:18:53;;;;;;;11.85;2.25;;;4.20;90.20;;;;;;5030360;28;20031;-72
2021/04/07 08:21:20;;;;;;;5.78;1.85;;;4.40;84.50;;;;;;4961793;28;20085;-72
2021/04/07 08:23:54;;;;;;;6.50;1.98;;;4.20;81.90;;;;;;4970745;28;20459;-72
2021/04/07 08:26:22;;;;;;;7.10;2.53;;;4.00;82.10;;;;;;5037981;28;20030;-71
2021/04/07 08:28:49;;;;;;;4.60;1.73;;;3.90;84.20;;;;;;4971090;28;20122;-70
2021/04/07 08:31:16;;;;;;;12.57;2.20;;;4.00;82.10;;;;;;4970823;28;20080;-71
2021/04/07 08:33:47;;;;;;;9.23;2.00;;;4.20;79.80;;;;;;4971018;28;20362;-71
2021/04/07 08:36:18;;;;;;;10.02;2.03;;;4.30;79.20;;;;;;4970906;28;20034;-71
2021/04/07 08:38:44;;;;;;;9.23;2.00;;;4.30;75.70;;;;;;4967842;28;20097;-71
2021/04/07 08:41:12;;;;;;;8.65;3.60;;;4.30;78.10;;;;;;5037805;28;20412;-71
2021/04/07 08:43:39;;;;;;;6.25;2.00;;;4.50;78.90;;;;;;5037683;28;20121;-71
2021/04/07 08:46:16;;;;;;;6.60;1.88;;;4.60;74.90;;;;;;4970767;28;20027;-71
2021/04/07 08:48:42;;;;;;;7.25;1.92;;;4.30;75.70;;;;;;4970773;28;20102;-71
2021/04/07 08:51:10;;;;;;;7.28;2.22;;;4.50;77.30;;;;;;4957866;28;20106;-71
2021/04/07 08:53:41;;;;;;;6.20;2.13;;;4.70;79.40;;;;;;4951696;29;20023;-72
2021/04/07 08:56:10;;;;;;;9.38;2.28;;;4.70;78.70;;;;;;5017659;28;20030;-71
2021/04/07 08:58:49;;;;;;;9.38;2.78;;;4.60;73.70;;;;;;4951314;28;20028;-71
2021/04/07 09:01:20;;;;;;;10.40;2.75;;;4.60;77.60;;;;;;4951538;28;20027;-70
2021/04/07 09:03:46;;;;;;;7.65;2.75;;;4.60;74.90;;;;;;5017419;28;20035;-70
2021/04/07 09:06:13;;;;;;;10.15;2.63;;;4.60;75.60;;;;;;4951244;28;20023;-71
2021/04/07 09:08:38;;;;;;;9.95;2.40;;;4.70;75.80;;;;;;5017559;28;20062;-71
2021/04/07 09:11:04;;;;;;;7.82;2.50;;;4.90;77.90;;;;;;4962019;28;20050;-71
2021/04/07 09:13:32;;;;;;;9.93;2.75;;;5.20;72.80;;;;;;4959175;28;20035;-70
2021/04/07 09:16:06;;;;;;;6.68;2.58;;;5.30;69.60;;;;;;5027362;28;20023;-70
2021/04/07 09:18:42;;;;;;;7.35;2.22;;;5.20;72.00;;;;;;5023420;28;20038;-71
2021/04/07 09:21:20;;;;;;;10.93;2.63;;;5.30;72.30;;;;;;4951203;29;20034;-70
2021/04/07 09:23:50;;;;;;;9.75;2.55;;;5.30;74.10;;;;;;5017673;28;20027;-70
2021/04/07 09:26:18;;;;;;;;;;;5.30;71.40;;;;;;4951527;28;20027;-70
2021/04/07 09:28:47;;;;;;;9.38;2.90;;;5.30;74.20;;;;;;5017847;28;19976;-70
2021/04/07 09:31:28;;;;;;;6.70;2.85;;;5.40;71.60;;;;;;4950876;28;20504;-71
2021/04/07 09:33:55;;;;;;;8.10;2.47;;;5.40;70.70;;;;;;4969793;28;20405;-71
2021/04/07 09:36:27;;;;;;;6.25;2.80;;;5.40;69.60;;;;;;4964206;28;20034;-70
2021/04/07 09:38:55;;;;;;;7.38;2.45;;;5.40;70.00;;;;;;4968039;28;20027;-71
2021/04/07 09:41:23;;;;;;;7.10;2.83;;;5.50;70.30;;;;;;5030479;28;20061;-71
2021/04/07 09:43:49;;;;;;;9.85;2.70;;;5.50;70.20;;;;;;4969342;28;20030;-70
2021/04/07 09:46:15;;;;;;;8.88;2.80;;;5.70;72.40;;;;;;4966837;28;20114;-70
2021/04/07 09:48:44;;;;;;;11.20;3.05;;;5.70;69.40;;;;;;5036095;28;20392;-71
2021/04/07 09:51:31;;;;;;;11.27;2.95;;;5.70;68.70;;;;;;5035436;28;20019;-70
2021/04/07 09:54:14;;;;;;;8.52;2.63;;;5.20;68.50;;;;;;4965799;28;20027;-71
2021/04/07 09:56:59;;;;;;;5.53;2.30;;;4.90;67.70;;;;;;4965565;28;20486;-70
2021/04/07 09:59:42;;;;;;;9.65;3.58;;;5.00;68.00;;;;;;5011097;28;20030;-71
2021/04/07 10:02:33;;;;;;;9.32;2.92;;;5.20;72.10;;;;;;4961987;28;20031;-72
2021/04/07 10:04:58;;;;;;;7.25;2.50;;;5.40;68.50;;;;;;4966732;28;20030;-70
2021/04/07 10:07:30;;;;;;;6.55;2.47;;;5.50;67.60;;;;;;4968014;28;20038;-70
2021/04/07 10:10:00;;;;;;;7.78;2.80;;;5.60;66.80;;;;;;4969089;28;20058;-71
2021/04/07 10:12:28;;;;;;;7.70;3.10;;;5.80;68.20;;;;;;4997070;28;20077;-71
2021/04/07 10:14:59;;;;;;;9.38;2.83;;;6.20;69.90;;;;;;4968986;28;20507;-70
2021/04/07 10:17:27;;;;;;;9.70;3.78;;;6.30;66.10;;;;;;4969315;28;20043;-70
2021/04/07 10:19:53;;;;;;;7.50;2.47;;;6.50;65.70;;;;;;4969473;28;20031;-71
2021/04/07 10:22:23;;;;;;;7.35;2.20;;;6.50;64.30;;;;;;4969154;28;20038;-71
2021/04/07 10:24:53;;;;;;;5.57;2.53;;;6.40;64.60;;;;;;4969388;28;20426;-71
2021/04/07 10:27:26;;;;;;;6.13;2.22;;;6.60;66.40;;;;;;4969269;28;20122;-71
2021/04/07 10:30:03;;;;;;;8.68;2.50;;;6.70;66.30;;;;;;4969416;28;20035;-71
2021/04/07 10:32:28;;;;;;;6.03;2.30;;;6.70;67.00;;;;;;5035623;28;20080;-70
2021/04/07 10:35:02;;;;;;;6.25;2.40;;;6.40;65.10;;;;;;5035677;28;20026;-70
2021/04/07 10:37:28;;;;;;;5.70;2.25;;;6.20;67.20;;;;;;4969157;28;20493;-70
2021/04/07 10:39:53;;;;;;;5.60;2.08;;;6.10;67.50;;;;;;5035792;28;20113;-71
2021/04/07 10:42:19;;;;;;;6.28;2.13;;;6.20;68.60;;;;;;4968975;28;20027;-70
2021/04/07 10:45:04;;;;;;;4.68;2.10;;;6.30;69.30;;;;;;4969273;28;20574;-70
2021/04/07 10:47:37;;;;;;;6.53;2.15;;;6.40;67.20;;;;;;4969218;28;20031;-71
2021/04/07 10:50:04;;;;;;;5.85;2.00;;;6.60;70.60;;;;;;4969251;28;20019;-72
2021/04/07 10:52:37;;;;;;;6.65;2.33;;;6.70;68.00;;;;;;4968932;28;20031;-71
2021/04/07 10:55:10;;;;;;;6.45;2.08;;;6.80;67.60;;;;;;4969303;28;20547;-72
2021/04/07 10:57:45;;;;;;;4.38;1.90;;;6.90;68.40;;;;;;4968984;28;20659;-72
2021/04/07 11:00:31;;;;;;;6.28;1.60;;;6.70;66.50;;;;;;5033339;28;20110;-71
2021/04/07 11:02:57;;;;;;;4.35;1.70;;;6.60;67.90;;;;;;5028323;28;20023;-71
2021/04/07 11:05:25;;;;;;;4.47;1.80;;;6.60;69.40;;;;;;4966446;28;20102;-71
2021/04/07 11:08:05;;;;;;;3.25;1.20;;;6.60;69.00;;;;;;4966156;28;20035;-71
2021/04/07 11:10:44;;;;;;;6.95;2.60;;;6.50;70.50;;;;;;4969058;28;20105;-72
2021/04/07 11:13:12;;;;;;;4.03;1.58;;;6.40;70.50;;;;;;4968831;28;20396;-71
2021/04/07 11:15:38;;;;;;;3.42;1.50;;;6.40;73.50;;;;;;4969062;28;20508;-71
2021/04/07 11:18:06;;;;;;;4.18;1.67;;;6.30;71.10;;;;;;4968847;28;20039;-71
2021/04/07 11:20:32;;;;;;;3.78;1.70;;;6.20;72.30;;;;;;4969145;28;20015;-71
2021/04/07 11:22:58;;;;;;;10.73;3.55;;;6.10;73.50;;;;;;4968971;28;20034;-71
2021/04/07 11:25:24;;;;;;;11.80;3.85;;;6.20;75.60;;;;;;4969123;28;20019;-71
2021/04/07 11:27:56;;;;;;;7.65;1.80;;;6.30;75.30;;;;;;4970097;28;20477;-71
2021/04/07 11:30:22;;;;;;;4.47;1.67;;;6.30;75.10;;;;;;5039387;28;20081;-71
2021/04/07 11:32:52;;;;;;;2.97;1.73;;;6.20;76.60;;;;;;5039174;28;20499;-71
2021/04/07 11:40:22;;;;;;;5.72;2.97;;;5.70;79.00;;;;;;4972279;28;20054;-73
2021/04/07 11:45:22;;;;;;;3.65;1.60;;;5.60;80.60;;;;;;4971921;28;20023;-72
2021/04/07 11:47:48;;;;;;;5.30;2.60;;;5.50;82.00;;;;;;4971743;28;20580;-73
2021/04/07 11:50:13;;;;;;;5.95;2.20;;;5.40;83.30;;;;;;5038959;28;20027;-73
2021/04/07 11:52:39;;;;;;;5.93;2.83;;;5.40;83.70;;;;;;4971824;28;20027;-73
2021/04/07 11:55:05;;;;;;;4.68;2.45;;;5.30;84.90;;;;;;4966774;28;20407;-73
2021/04/07 11:57:32;;;;;;;4.80;2.20;;;5.40;85.40;;;;;;5038353;28;20041;-72
2021/04/07 11:59:58;;;;;;;5.05;2.58;;;5.30;84.20;;;;;;5038761;28;20499;-73
2021/04/07 12:02:23;;;;;;;5.18;2.20;;;5.20;84.80;;;;;;4971427;28;20051;-72
2021/04/07 12:04:51;;;;;;;6.70;2.42;;;5.20;86.10;;;;;;4971638;28;20097;-73
2021/04/07 12:07:16;;;;;;;5.85;2.50;;;5.30;85.20;;;;;;5038355;28;20034;-73
2021/04/07 12:09:42;;;;;;;5.00;2.25;;;5.30;85.90;;;;;;4971523;28;20022;-73
2021/04/07 12:12:09;;;;;;;6.13;2.67;;;5.40;87.60;;;;;;4971182;28;20118;-72
2021/04/07 12:14:34;;;;;;;6.28;2.45;;;5.50;86.00;;;;;;4971473;28;20402;-73
2021/04/07 12:17:00;;;;;;;5.10;2.35;;;5.60;85.80;;;;;;4971126;28;20035;-73
2021/04/07 12:19:26;;;;;;;4.45;2.05;;;5.70;85.50;;;;;;5038148;28;20023;-73
2021/04/07 12:21:52;;;;;;;3.60;1.95;;;5.60;86.40;;;;;;4971107;28;20023;-73
2021/04/07 12:24:17;;;;;;;4.53;2.28;;;5.60;85.60;;;;;;5038231;28;20061;-74
2021/04/07 12:26:43;;;;;;;5.45;2.90;;;5.50;86.90;;;;;;4971184;28;20446;-73
2021/04/07 12:29:10;;;;;;;5.55;2.08;;;5.50;88.00;;;;;;4971153;28;20497;-70
2021/04/07 12:31:36;;;;;;;4.50;2.40;;;5.30;88.70;;;;;;5037359;28;20413;-70
2021/04/07 12:34:02;;;;;;;5.95;2.70;;;5.20;89.90;;;;;;4951897;29;20034;-71
2021/04/07 12:36:29;;;;;;;7.13;2.90;;;5.00;90.20;;;;;;4950231;28;20023;-71
2021/04/07 12:38:56;;;;;;;5.72;2.67;;;5.10;90.50;;;;;;4949915;28;20506;-70
2021/04/07 12:41:29;;;;;;;5.10;2.28;;;5.10;90.10;;;;;;4951514;28;20019;-71
2021/04/07 12:43:55;;;;;;;5.25;3.13;;;5.10;90.30;;;;;;4950506;28;20019;-72
2021/04/07 12:46:21;;;;;;;4.10;2.05;;;5.10;90.30;;;;;;4949929;28;20038;-72
2021/04/07 12:48:48;;;;;;;4.80;2.20;;;5.20;90.10;;;;;;4950418;28;20162;-71
2021/04/07 12:51:21;;;;;;;3.92;2.10;;;5.20;90.10;;;;;;4951588;29;20047;-71
2021/04/07 12:53:47;;;;;;;6.63;2.83;;;5.10;90.10;;;;;;4951704;29;20030;-71
2021/04/07 12:56:16;;;;;;;5.85;2.45;;;5.00;90.50;;;;;;4951535;29;20482;-70
2021/04/07 12:58:43;;;;;;;5.00;2.55;;;4.90;90.80;;;;;;4951514;29;20023;-71
2021/04/07 13:01:09;;;;;;;5.45;2.05;;;4.90;90.90;;;;;;4950217;29;20533;-71
2021/04/07 13:03:35;;;;;;;5.35;2.38;;;4.90;91.10;;;;;;4951397;28;20023;-71
2021/04/07 13:06:00;;;;;;;5.25;2.30;;;4.90;91.20;;;;;;4951451;29;20020;-72